sensor_id;sensor_type;location;lat;lon;timestamp;P1;durP1;ratioP1;P2;durP2;ratioP2
48651;SDS011;34442;52.362;-1.302;2022-11-21T00:01:18;1.55;;;1.02;;
48651;SDS011;34442;52.362;-1.302;2022-11-21T00:03:47;2.10;;;0.82;;
48651;SDS011;34442;52.362;-1.302;2022-11-21T00:06:12;0.65;;;0.60;;
48651;SDS011;34442;52.362;-1.302;2022-11-21T00:08:38;1.33;;;0.70;;
48651;SDS011;34442;52.362;-1.302;2022-11-21T00:11:04;0.98;;;0.68;;
48651;SDS011;34442;52.362;-1.302;2022-11-21T00:13:29;1.85;;;0.90;;
48651;SDS011;34442;52.362;-1.302;2022-11-21T00:15:54;1.92;;;0.90;;
48651;SDS011;34442;52.362;-1.302;2022-11-21T00:18:20;1.58;;;0.90;;
48651;SDS011;34442;52.362;-1.302;2022-11-21T00:20:45;1.33;;;0.80;;
48651;SDS011;34442;52.362;-1.302;2022-11-21T00:23:12;0.65;;;0.65;;
48651;SDS011;34442;52.362;-1.302;2022-11-21T00:25:37;1.98;;;0.90;;
48651;SDS011;34442;52.362;-1.302;2022-11-21T00:28:03;0.98;;;0.88;;
48651;SDS011;34442;52.362;-1.302;2022-11-21T00:30:29;1.42;;;0.75;;
48651;SDS011;34442;52.362;-1.302;2022-11-21T00:32:56;1.20;;;0.80;;
48651;SDS011;34442;52.362;-1.302;2022-11-21T00:35:22;1.10;;;0.80;;
48651;SDS011;34442;52.362;-1.302;2022-11-21T00:37:48;1.48;;;0.80;;
48651;SDS011;34442;52.362;-1.302;2022-11-21T00:40:15;0.93;;;0.80;;
48651;SDS011;34442;52.362;-1.302;2022-11-21T00:42:42;1.75;;;1.10;;
48651;SDS011;34442;52.362;-1.302;2022-11-21T00:45:07;1.27;;;0.95;;
48651;SDS011;34442;52.362;-1.302;2022-11-21T00:47:33;1.65;;;1.00;;
48651;SDS011;34442;52.362;-1.302;2022-11-21T00:49:58;0.95;;;0.68;;
48651;SDS011;34442;52.362;-1.302;2022-11-21T00:52:24;1.67;;;1.08;;
48651;SDS011;34442;52.362;-1.302;2022-11-21T00:54:49;2.85;;;0.90;;
48651;SDS011;34442;52.362;-1.302;2022-11-21T00:57:15;1.13;;;0.80;;
48651;SDS011;34442;52.362;-1.302;2022-11-21T00:59:40;1.25;;;0.98;;
48651;SDS011;34442;52.362;-1.302;2022-11-21T01:02:06;1.58;;;0.82;;
48651;SDS011;34442;52.362;-1.302;2022-11-21T01:04:32;1.75;;;0.85;;
48651;SDS011;34442;52.362;-1.302;2022-11-21T01:06:58;0.73;;;0.73;;
48651;SDS011;34442;52.362;-1.302;2022-11-21T01:09:24;1.48;;;0.80;;
48651;SDS011;34442;52.362;-1.302;2022-11-21T01:11:50;1.45;;;1.35;;
48651;SDS011;34442;52.362;-1.302;2022-11-21T01:14:15;1.63;;;0.85;;
48651;SDS011;34442;52.362;-1.302;2022-11-21T01:16:41;1.35;;;0.73;;
48651;SDS011;34442;52.362;-1.302;2022-11-21T01:19:06;2.28;;;1.00;;
48651;SDS011;34442;52.362;-1.302;2022-11-21T01:21:32;1.20;;;0.73;;
48651;SDS011;34442;52.362;-1.302;2022-11-21T01:23:58;1.65;;;0.77;;
48651;SDS011;34442;52.362;-1.302;2022-11-21T01:26:26;2.17;;;0.90;;
48651;SDS011;34442;52.362;-1.302;2022-11-21T01:28:52;1.15;;;0.75;;
48651;SDS011;34442;52.362;-1.302;2022-11-21T01:31:20;0.88;;;0.77;;
48651;SDS011;34442;52.362;-1.302;2022-11-21T01:33:47;1.42;;;0.70;;
48651;SDS011;34442;52.362;-1.302;2022-11-21T01:36:26;1.15;;;0.70;;
48651;SDS011;34442;52.362;-1.302;2022-11-21T01:38:54;2.55;;;0.88;;
48651;SDS011;34442;52.362;-1.302;2022-11-21T01:41:22;1.88;;;0.90;;
48651;SDS011;34442;52.362;-1.302;2022-11-21T01:46:21;0.70;;;0.70;;
48651;SDS011;34442;52.362;-1.302;2022-11-21T01:51:18;1.38;;;0.82;;
48651;SDS011;34442;52.362;-1.302;2022-11-21T01:53:59;2.20;;;0.90;;
48651;SDS011;34442;52.362;-1.302;2022-11-21T01:56:28;1.58;;;0.80;;
48651;SDS011;34442;52.362;-1.302;2022-11-21T01:59:00;0.73;;;0.73;;
48651;SDS011;34442;52.362;-1.302;2022-11-21T02:01:28;2.58;;;1.13;;
48651;SDS011;34442;52.362;-1.302;2022-11-21T02:03:55;0.93;;;0.63;;
48651;SDS011;34442;52.362;-1.302;2022-11-21T02:06:22;0.60;;;0.60;;
48651;SDS011;34442;52.362;-1.302;2022-11-21T02:08:49;1.75;;;0.70;;
48651;SDS011;34442;52.362;-1.302;2022-11-21T02:11:57;1.55;;;0.70;;
48651;SDS011;34442;52.362;-1.302;2022-11-21T02:14:15;1.42;;;0.80;;
48651;SDS011;34442;52.362;-1.302;2022-11-21T02:16:40;0.70;;;0.70;;
48651;SDS011;34442;52.362;-1.302;2022-11-21T02:19:11;3.55;;;0.77;;
48651;SDS011;34442;52.362;-1.302;2022-11-21T02:21:50;2.33;;;0.80;;
48651;SDS011;34442;52.362;-1.302;2022-11-21T02:24:29;0.90;;;0.60;;
48651;SDS011;34442;52.362;-1.302;2022-11-21T02:27:01;0.50;;;0.50;;
48651;SDS011;34442;52.362;-1.302;2022-11-21T02:29:26;1.08;;;0.50;;
48651;SDS011;34442;52.362;-1.302;2022-11-21T02:31:52;0.45;;;0.45;;
48651;SDS011;34442;52.362;-1.302;2022-11-21T02:34:17;0.60;;;0.60;;
48651;SDS011;34442;52.362;-1.302;2022-11-21T02:36:44;1.10;;;0.70;;
48651;SDS011;34442;52.362;-1.302;2022-11-21T02:39:32;0.98;;;0.52;;
48651;SDS011;34442;52.362;-1.302;2022-11-21T02:44:46;0.82;;;0.70;;
48651;SDS011;34442;52.362;-1.302;2022-11-21T02:49:49;1.13;;;0.73;;
48651;SDS011;34442;52.362;-1.302;2022-11-21T02:52:21;0.70;;;0.70;;
48651;SDS011;34442;52.362;-1.302;2022-11-21T02:54:46;0.40;;;0.40;;
48651;SDS011;34442;52.362;-1.302;2022-11-21T02:57:12;1.00;;;0.70;;
48651;SDS011;34442;52.362;-1.302;2022-11-21T02:59:37;0.77;;;0.70;;
48651;SDS011;34442;52.362;-1.302;2022-11-21T03:02:02;0.70;;;0.70;;
48651;SDS011;34442;52.362;-1.302;2022-11-21T03:04:28;0.82;;;0.75;;
48651;SDS011;34442;52.362;-1.302;2022-11-21T03:06:54;0.60;;;0.60;;
48651;SDS011;34442;52.362;-1.302;2022-11-21T03:09:19;2.50;;;0.95;;
48651;SDS011;34442;52.362;-1.302;2022-11-21T03:11:44;2.05;;;0.90;;
48651;SDS011;34442;52.362;-1.302;2022-11-21T03:14:10;2.35;;;0.70;;
48651;SDS011;34442;52.362;-1.302;2022-11-21T03:16:35;1.27;;;0.80;;
48651;SDS011;34442;52.362;-1.302;2022-11-21T03:19:01;0.65;;;0.60;;
48651;SDS011;34442;52.362;-1.302;2022-11-21T03:21:26;0.50;;;0.50;;
48651;SDS011;34442;52.362;-1.302;2022-11-21T03:23:51;1.40;;;0.80;;
48651;SDS011;34442;52.362;-1.302;2022-11-21T03:26:17;0.73;;;0.70;;
48651;SDS011;34442;52.362;-1.302;2022-11-21T03:28:42;0.55;;;0.50;;
48651;SDS011;34442;52.362;-1.302;2022-11-21T03:31:07;2.67;;;0.85;;
48651;SDS011;34442;52.362;-1.302;2022-11-21T03:33:33;2.90;;;0.95;;
48651;SDS011;34442;52.362;-1.302;2022-11-21T03:35:58;1.25;;;0.70;;
48651;SDS011;34442;52.362;-1.302;2022-11-21T03:38:23;0.80;;;0.80;;
48651;SDS011;34442;52.362;-1.302;2022-11-21T03:40:49;2.00;;;0.70;;
48651;SDS011;34442;52.362;-1.302;2022-11-21T03:43:14;1.45;;;0.80;;
48651;SDS011;34442;52.362;-1.302;2022-11-21T03:45:40;3.60;;;0.80;;
48651;SDS011;34442;52.362;-1.302;2022-11-21T03:48:05;1.05;;;0.63;;
48651;SDS011;34442;52.362;-1.302;2022-11-21T03:50:31;0.60;;;0.60;;
48651;SDS011;34442;52.362;-1.302;2022-11-21T03:52:56;0.75;;;0.70;;
48651;SDS011;34442;52.362;-1.302;2022-11-21T03:55:21;0.70;;;0.70;;
48651;SDS011;34442;52.362;-1.302;2022-11-21T03:57:47;0.63;;;0.60;;
48651;SDS011;34442;52.362;-1.302;2022-11-21T04:00:13;1.70;;;0.68;;
48651;SDS011;34442;52.362;-1.302;2022-11-21T04:02:39;0.70;;;0.70;;
48651;SDS011;34442;52.362;-1.302;2022-11-21T04:05:04;1.02;;;0.70;;
48651;SDS011;34442;52.362;-1.302;2022-11-21T04:07:30;0.70;;;0.70;;
48651;SDS011;34442;52.362;-1.302;2022-11-21T04:09:55;0.88;;;0.73;;
48651;SDS011;34442;52.362;-1.302;2022-11-21T04:12:21;0.70;;;0.70;;
48651;SDS011;34442;52.362;-1.302;2022-11-21T04:14:46;2.05;;;1.02;;
48651;SDS011;34442;52.362;-1.302;2022-11-21T04:17:11;0.60;;;0.60;;
48651;SDS011;34442;52.362;-1.302;2022-11-21T04:19:37;1.50;;;1.23;;
48651;SDS011;34442;52.362;-1.302;2022-11-21T04:22:02;2.97;;;1.05;;
48651;SDS011;34442;52.362;-1.302;2022-11-21T04:24:27;0.60;;;0.60;;
48651;SDS011;34442;52.362;-1.302;2022-11-21T04:26:53;0.60;;;0.60;;
48651;SDS011;34442;52.362;-1.302;2022-11-21T04:29:19;1.35;;;0.80;;
48651;SDS011;34442;52.362;-1.302;2022-11-21T04:31:45;1.48;;;0.80;;
48651;SDS011;34442;52.362;-1.302;2022-11-21T04:34:10;1.80;;;0.80;;
48651;SDS011;34442;52.362;-1.302;2022-11-21T04:36:35;2.10;;;0.98;;
48651;SDS011;34442;52.362;-1.302;2022-11-21T04:39:01;1.35;;;0.80;;
48651;SDS011;34442;52.362;-1.302;2022-11-21T04:41:26;2.20;;;0.88;;
48651;SDS011;34442;52.362;-1.302;2022-11-21T04:43:51;2.97;;;0.85;;
48651;SDS011;34442;52.362;-1.302;2022-11-21T04:46:17;1.73;;;0.80;;
48651;SDS011;34442;52.362;-1.302;2022-11-21T04:48:42;2.15;;;0.90;;
48651;SDS011;34442;52.362;-1.302;2022-11-21T04:51:08;2.63;;;0.70;;
48651;SDS011;34442;52.362;-1.302;2022-11-21T04:53:33;3.20;;;0.95;;
48651;SDS011;34442;52.362;-1.302;2022-11-21T04:56:01;2.05;;;0.80;;
48651;SDS011;34442;52.362;-1.302;2022-11-21T04:58:29;1.92;;;0.90;;
48651;SDS011;34442;52.362;-1.302;2022-11-21T05:00:54;2.08;;;1.00;;
48651;SDS011;34442;52.362;-1.302;2022-11-21T05:03:20;2.17;;;0.95;;
48651;SDS011;34442;52.362;-1.302;2022-11-21T05:05:45;1.88;;;0.80;;
48651;SDS011;34442;52.362;-1.302;2022-11-21T05:08:11;1.10;;;0.77;;
48651;SDS011;34442;52.362;-1.302;2022-11-21T05:10:36;0.65;;;0.60;;
48651;SDS011;34442;52.362;-1.302;2022-11-21T05:13:22;4.38;;;0.88;;
48651;SDS011;34442;52.362;-1.302;2022-11-21T05:15:47;1.88;;;0.90;;
48651;SDS011;34442;52.362;-1.302;2022-11-21T05:18:18;1.65;;;0.70;;
48651;SDS011;34442;52.362;-1.302;2022-11-21T05:20:44;2.90;;;1.00;;
48651;SDS011;34442;52.362;-1.302;2022-11-21T05:23:09;1.95;;;0.95;;
48651;SDS011;34442;52.362;-1.302;2022-11-21T05:25:35;2.08;;;0.75;;
48651;SDS011;34442;52.362;-1.302;2022-11-21T05:28:00;3.08;;;1.45;;
48651;SDS011;34442;52.362;-1.302;2022-11-21T05:30:25;1.60;;;0.93;;
48651;SDS011;34442;52.362;-1.302;2022-11-21T05:32:51;1.60;;;0.88;;
48651;SDS011;34442;52.362;-1.302;2022-11-21T05:35:17;2.10;;;1.00;;
48651;SDS011;34442;52.362;-1.302;2022-11-21T05:37:42;2.17;;;0.80;;
48651;SDS011;34442;52.362;-1.302;2022-11-21T05:40:07;4.80;;;1.20;;
48651;SDS011;34442;52.362;-1.302;2022-11-21T05:42:37;2.58;;;1.00;;
48651;SDS011;34442;52.362;-1.302;2022-11-21T05:45:22;2.92;;;1.15;;
48651;SDS011;34442;52.362;-1.302;2022-11-21T05:47:47;1.80;;;0.85;;
48651;SDS011;34442;52.362;-1.302;2022-11-21T05:50:12;3.55;;;2.47;;
48651;SDS011;34442;52.362;-1.302;2022-11-21T05:52:38;3.03;;;0.93;;
48651;SDS011;34442;52.362;-1.302;2022-11-21T05:55:03;2.88;;;1.05;;
48651;SDS011;34442;52.362;-1.302;2022-11-21T05:57:29;5.32;;;1.60;;
48651;SDS011;34442;52.362;-1.302;2022-11-21T05:59:55;2.20;;;0.95;;
48651;SDS011;34442;52.362;-1.302;2022-11-21T06:02:20;2.35;;;0.90;;
48651;SDS011;34442;52.362;-1.302;2022-11-21T06:05:04;2.22;;;1.20;;
48651;SDS011;34442;52.362;-1.302;2022-11-21T06:07:29;2.92;;;1.00;;
48651;SDS011;34442;52.362;-1.302;2022-11-21T06:09:55;0.80;;;0.77;;
48651;SDS011;34442;52.362;-1.302;2022-11-21T06:12:20;3.67;;;1.17;;
48651;SDS011;34442;52.362;-1.302;2022-11-21T06:14:46;1.50;;;0.80;;
48651;SDS011;34442;52.362;-1.302;2022-11-21T06:17:11;2.85;;;0.80;;
48651;SDS011;34442;52.362;-1.302;2022-11-21T06:19:36;1.70;;;0.85;;
48651;SDS011;34442;52.362;-1.302;2022-11-21T06:22:02;2.13;;;0.90;;
48651;SDS011;34442;52.362;-1.302;2022-11-21T06:24:27;1.30;;;0.80;;
48651;SDS011;34442;52.362;-1.302;2022-11-21T06:26:52;3.97;;;1.42;;
48651;SDS011;34442;52.362;-1.302;2022-11-21T06:29:18;1.48;;;1.00;;
48651;SDS011;34442;52.362;-1.302;2022-11-21T06:31:46;1.77;;;0.98;;
48651;SDS011;34442;52.362;-1.302;2022-11-21T06:34:11;4.75;;;1.95;;
48651;SDS011;34442;52.362;-1.302;2022-11-21T06:36:37;6.10;;;1.45;;
48651;SDS011;34442;52.362;-1.302;2022-11-21T06:39:02;1.98;;;1.20;;
48651;SDS011;34442;52.362;-1.302;2022-11-21T06:41:27;3.03;;;1.10;;
48651;SDS011;34442;52.362;-1.302;2022-11-21T06:43:59;3.33;;;1.20;;
48651;SDS011;34442;52.362;-1.302;2022-11-21T06:46:27;2.08;;;1.08;;
48651;SDS011;34442;52.362;-1.302;2022-11-21T06:48:53;5.75;;;1.85;;
48651;SDS011;34442;52.362;-1.302;2022-11-21T06:51:20;3.97;;;1.70;;
48651;SDS011;34442;52.362;-1.302;2022-11-21T06:53:50;5.78;;;1.52;;
48651;SDS011;34442;52.362;-1.302;2022-11-21T06:56:21;3.03;;;1.35;;
48651;SDS011;34442;52.362;-1.302;2022-11-21T06:58:47;3.50;;;1.05;;
48651;SDS011;34442;52.362;-1.302;2022-11-21T07:01:13;3.38;;;1.23;;
48651;SDS011;34442;52.362;-1.302;2022-11-21T07:03:38;2.42;;;1.08;;
48651;SDS011;34442;52.362;-1.302;2022-11-21T07:06:04;3.58;;;1.40;;
48651;SDS011;34442;52.362;-1.302;2022-11-21T07:08:31;4.05;;;1.30;;
48651;SDS011;34442;52.362;-1.302;2022-11-21T07:11:00;4.20;;;1.42;;
48651;SDS011;34442;52.362;-1.302;2022-11-21T07:13:28;4.45;;;1.35;;
48651;SDS011;34442;52.362;-1.302;2022-11-21T07:15:54;5.63;;;2.20;;
48651;SDS011;34442;52.362;-1.302;2022-11-21T07:18:25;4.22;;;1.60;;
48651;SDS011;34442;52.362;-1.302;2022-11-21T07:20:50;4.50;;;1.25;;
48651;SDS011;34442;52.362;-1.302;2022-11-21T07:23:16;3.50;;;1.50;;
48651;SDS011;34442;52.362;-1.302;2022-11-21T07:25:41;4.90;;;1.95;;
48651;SDS011;34442;52.362;-1.302;2022-11-21T07:28:07;6.75;;;2.13;;
48651;SDS011;34442;52.362;-1.302;2022-11-21T07:30:36;2.67;;;1.40;;
48651;SDS011;34442;52.362;-1.302;2022-11-21T07:33:02;2.13;;;1.20;;
48651;SDS011;34442;52.362;-1.302;2022-11-21T07:35:30;5.25;;;1.83;;
48651;SDS011;34442;52.362;-1.302;2022-11-21T07:37:56;4.97;;;1.67;;
48651;SDS011;34442;52.362;-1.302;2022-11-21T07:40:22;2.42;;;1.17;;
48651;SDS011;34442;52.362;-1.302;2022-11-21T07:42:47;1.83;;;0.93;;
48651;SDS011;34442;52.362;-1.302;2022-11-21T07:45:13;4.95;;;1.85;;
48651;SDS011;34442;52.362;-1.302;2022-11-21T07:47:39;3.95;;;1.40;;
48651;SDS011;34442;52.362;-1.302;2022-11-21T07:50:05;4.93;;;1.70;;
48651;SDS011;34442;52.362;-1.302;2022-11-21T07:52:32;3.42;;;1.23;;
48651;SDS011;34442;52.362;-1.302;2022-11-21T07:54:57;6.40;;;2.60;;
48651;SDS011;34442;52.362;-1.302;2022-11-21T07:57:24;4.63;;;1.80;;
48651;SDS011;34442;52.362;-1.302;2022-11-21T07:59:49;4.63;;;2.22;;
48651;SDS011;34442;52.362;-1.302;2022-11-21T08:02:18;3.63;;;1.80;;
48651;SDS011;34442;52.362;-1.302;2022-11-21T08:04:48;5.20;;;1.83;;
48651;SDS011;34442;52.362;-1.302;2022-11-21T08:07:14;4.60;;;1.73;;
48651;SDS011;34442;52.362;-1.302;2022-11-21T08:09:41;4.47;;;1.60;;
48651;SDS011;34442;52.362;-1.302;2022-11-21T08:12:06;2.45;;;1.27;;
48651;SDS011;34442;52.362;-1.302;2022-11-21T08:14:32;8.57;;;2.20;;
48651;SDS011;34442;52.362;-1.302;2022-11-21T08:16:58;7.15;;;2.22;;
48651;SDS011;34442;52.362;-1.302;2022-11-21T08:19:23;3.65;;;1.40;;
48651;SDS011;34442;52.362;-1.302;2022-11-21T08:21:49;1.75;;;1.10;;
48651;SDS011;34442;52.362;-1.302;2022-11-21T08:24:14;8.43;;;2.28;;
48651;SDS011;34442;52.362;-1.302;2022-11-21T08:26:41;3.92;;;1.67;;
48651;SDS011;34442;52.362;-1.302;2022-11-21T08:29:11;6.50;;;1.50;;
48651;SDS011;34442;52.362;-1.302;2022-11-21T08:31:39;4.72;;;1.67;;
48651;SDS011;34442;52.362;-1.302;2022-11-21T08:34:05;3.55;;;1.40;;
48651;SDS011;34442;52.362;-1.302;2022-11-21T08:36:30;5.45;;;1.58;;
48651;SDS011;34442;52.362;-1.302;2022-11-21T08:38:55;4.65;;;1.60;;
48651;SDS011;34442;52.362;-1.302;2022-11-21T08:41:21;2.10;;;1.20;;
48651;SDS011;34442;52.362;-1.302;2022-11-21T08:44:05;2.58;;;1.00;;
48651;SDS011;34442;52.362;-1.302;2022-11-21T08:46:32;2.58;;;1.40;;
48651;SDS011;34442;52.362;-1.302;2022-11-21T08:49:01;4.90;;;1.27;;
48651;SDS011;34442;52.362;-1.302;2022-11-21T08:51:29;3.95;;;1.90;;
48651;SDS011;34442;52.362;-1.302;2022-11-21T08:53:55;3.92;;;1.40;;
48651;SDS011;34442;52.362;-1.302;2022-11-21T08:56:20;5.65;;;1.85;;
48651;SDS011;34442;52.362;-1.302;2022-11-21T08:58:46;4.68;;;2.15;;
48651;SDS011;34442;52.362;-1.302;2022-11-21T09:01:11;6.47;;;2.05;;
48651;SDS011;34442;52.362;-1.302;2022-11-21T09:03:37;3.33;;;1.08;;
48651;SDS011;34442;52.362;-1.302;2022-11-21T09:06:02;4.00;;;1.33;;
48651;SDS011;34442;52.362;-1.302;2022-11-21T09:08:28;4.65;;;1.45;;
48651;SDS011;34442;52.362;-1.302;2022-11-21T09:10:54;6.07;;;1.70;;
48651;SDS011;34442;52.362;-1.302;2022-11-21T09:13:19;3.20;;;1.35;;
48651;SDS011;34442;52.362;-1.302;2022-11-21T09:15:45;2.97;;;1.42;;
48651;SDS011;34442;52.362;-1.302;2022-11-21T09:18:29;5.68;;;1.80;;
48651;SDS011;34442;52.362;-1.302;2022-11-21T09:20:54;3.70;;;1.35;;
48651;SDS011;34442;52.362;-1.302;2022-11-21T09:23:20;5.13;;;1.60;;
48651;SDS011;34442;52.362;-1.302;2022-11-21T09:25:46;3.83;;;2.28;;
48651;SDS011;34442;52.362;-1.302;2022-11-21T09:28:11;6.93;;;1.58;;
48651;SDS011;34442;52.362;-1.302;2022-11-21T09:30:38;2.20;;;1.00;;
48651;SDS011;34442;52.362;-1.302;2022-11-21T09:33:05;4.30;;;1.45;;
48651;SDS011;34442;52.362;-1.302;2022-11-21T09:35:33;3.58;;;1.25;;
48651;SDS011;34442;52.362;-1.302;2022-11-21T09:37:59;3.03;;;1.08;;
48651;SDS011;34442;52.362;-1.302;2022-11-21T09:40:24;3.95;;;1.27;;
48651;SDS011;34442;52.362;-1.302;2022-11-21T09:46:13;7.28;;;1.88;;
48651;SDS011;34442;52.362;-1.302;2022-11-21T09:48:46;4.70;;;1.90;;
48651;SDS011;34442;52.362;-1.302;2022-11-21T09:51:15;2.88;;;1.30;;
48651;SDS011;34442;52.362;-1.302;2022-11-21T09:53:49;5.10;;;1.50;;
48651;SDS011;34442;52.362;-1.302;2022-11-21T09:56:20;7.50;;;2.08;;
48651;SDS011;34442;52.362;-1.302;2022-11-21T09:58:55;3.70;;;1.50;;
48651;SDS011;34442;52.362;-1.302;2022-11-21T10:01:31;5.85;;;1.85;;
48651;SDS011;34442;52.362;-1.302;2022-11-21T10:03:57;5.22;;;2.35;;
48651;SDS011;34442;52.362;-1.302;2022-11-21T10:06:27;9.52;;;2.33;;
48651;SDS011;34442;52.362;-1.302;2022-11-21T10:09:07;8.50;;;1.83;;
48651;SDS011;34442;52.362;-1.302;2022-11-21T10:17:44;8.38;;;2.50;;
48651;SDS011;34442;52.362;-1.302;2022-11-21T10:25:35;5.32;;;2.03;;
48651;SDS011;34442;52.362;-1.302;2022-11-21T10:30:56;6.75;;;2.25;;
48651;SDS011;34442;52.362;-1.302;2022-11-21T10:33:30;6.22;;;2.13;;
48651;SDS011;34442;52.362;-1.302;2022-11-21T10:35:58;5.28;;;1.83;;
48651;SDS011;34442;52.362;-1.302;2022-11-21T10:38:29;7.22;;;1.67;;
48651;SDS011;34442;52.362;-1.302;2022-11-21T10:41:04;5.85;;;2.25;;
48651;SDS011;34442;52.362;-1.302;2022-11-21T10:46:32;8.35;;;2.15;;
48651;SDS011;34442;52.362;-1.302;2022-11-21T10:48:58;6.70;;;2.28;;
48651;SDS011;34442;52.362;-1.302;2022-11-21T10:54:07;7.47;;;2.78;;
48651;SDS011;34442;52.362;-1.302;2022-11-21T10:56:56;7.55;;;2.08;;
48651;SDS011;34442;52.362;-1.302;2022-11-21T10:59:30;9.10;;;2.75;;
48651;SDS011;34442;52.362;-1.302;2022-11-21T11:04:48;8.25;;;2.58;;
48651;SDS011;34442;52.362;-1.302;2022-11-21T11:07:33;4.50;;;2.00;;
48651;SDS011;34442;52.362;-1.302;2022-11-21T11:12:43;7.28;;;3.05;;
48651;SDS011;34442;52.362;-1.302;2022-11-21T11:15:32;5.32;;;1.58;;
48651;SDS011;34442;52.362;-1.302;2022-11-21T11:17:59;3.80;;;1.40;;
48651;SDS011;34442;52.362;-1.302;2022-11-21T11:22:58;4.97;;;1.20;;
48651;SDS011;34442;52.362;-1.302;2022-11-21T11:25:24;4.82;;;1.40;;
48651;SDS011;34442;52.362;-1.302;2022-11-21T11:27:50;6.03;;;1.85;;
48651;SDS011;34442;52.362;-1.302;2022-11-21T11:30:17;5.45;;;1.27;;
48651;SDS011;34442;52.362;-1.302;2022-11-21T11:32:43;9.75;;;2.30;;
48651;SDS011;34442;52.362;-1.302;2022-11-21T11:37:37;4.28;;;1.27;;
48651;SDS011;34442;52.362;-1.302;2022-11-21T11:40:18;4.40;;;1.50;;
48651;SDS011;34442;52.362;-1.302;2022-11-21T11:50:02;3.88;;;1.30;;
48651;SDS011;34442;52.362;-1.302;2022-11-21T11:52:29;4.28;;;1.40;;
48651;SDS011;34442;52.362;-1.302;2022-11-21T11:55:02;4.53;;;1.20;;
48651;SDS011;34442;52.362;-1.302;2022-11-21T11:57:38;6.72;;;2.28;;
48651;SDS011;34442;52.362;-1.302;2022-11-21T12:00:15;4.95;;;1.63;;
48651;SDS011;34442;52.362;-1.302;2022-11-21T12:03:20;5.15;;;1.83;;
48651;SDS011;34442;52.362;-1.302;2022-11-21T12:05:55;3.80;;;1.10;;
48651;SDS011;34442;52.362;-1.302;2022-11-21T12:08:47;5.57;;;1.50;;
48651;SDS011;34442;52.362;-1.302;2022-11-21T12:14:17;4.63;;;1.33;;
48651;SDS011;34442;52.362;-1.302;2022-11-21T12:17:12;4.53;;;1.50;;
48651;SDS011;34442;52.362;-1.302;2022-11-21T12:19:41;3.38;;;1.00;;
48651;SDS011;34442;52.362;-1.302;2022-11-21T12:22:08;8.32;;;1.77;;
48651;SDS011;34442;52.362;-1.302;2022-11-21T12:24:35;8.20;;;1.98;;
48651;SDS011;34442;52.362;-1.302;2022-11-21T12:27:09;3.90;;;1.45;;
48651;SDS011;34442;52.362;-1.302;2022-11-21T12:35:19;3.45;;;1.20;;
48651;SDS011;34442;52.362;-1.302;2022-11-21T12:38:12;3.30;;;1.27;;
48651;SDS011;34442;52.362;-1.302;2022-11-21T12:40:55;5.15;;;1.75;;
48651;SDS011;34442;52.362;-1.302;2022-11-21T12:43:52;4.40;;;1.40;;
48651;SDS011;34442;52.362;-1.302;2022-11-21T12:52:41;8.68;;;3.00;;
48651;SDS011;34442;52.362;-1.302;2022-11-21T12:55:38;6.95;;;2.05;;
48651;SDS011;34442;52.362;-1.302;2022-11-21T12:58:07;5.85;;;1.70;;
48651;SDS011;34442;52.362;-1.302;2022-11-21T13:06:23;3.78;;;1.50;;
48651;SDS011;34442;52.362;-1.302;2022-11-21T13:08:53;2.65;;;1.10;;
48651;SDS011;34442;52.362;-1.302;2022-11-21T13:14:26;3.40;;;1.02;;
48651;SDS011;34442;52.362;-1.302;2022-11-21T13:25:01;6.70;;;2.10;;
48651;SDS011;34442;52.362;-1.302;2022-11-21T13:27:37;9.23;;;2.78;;
48651;SDS011;34442;52.362;-1.302;2022-11-21T13:45:50;4.80;;;2.00;;
48651;SDS011;34442;52.362;-1.302;2022-11-21T13:54:03;4.22;;;1.65;;
48651;SDS011;34442;52.362;-1.302;2022-11-21T13:56:40;7.63;;;2.05;;
48651;SDS011;34442;52.362;-1.302;2022-11-21T14:08:11;2.47;;;2.20;;
48651;SDS011;34442;52.362;-1.302;2022-11-21T14:10:57;4.18;;;1.50;;
48651;SDS011;34442;52.362;-1.302;2022-11-21T14:13:29;3.08;;;1.42;;
48651;SDS011;34442;52.362;-1.302;2022-11-21T14:18:45;3.55;;;1.25;;
48651;SDS011;34442;52.362;-1.302;2022-11-21T14:24:16;4.32;;;1.85;;
48651;SDS011;34442;52.362;-1.302;2022-11-21T14:26:44;3.58;;;1.10;;
48651;SDS011;34442;52.362;-1.302;2022-11-21T14:29:16;5.28;;;1.58;;
48651;SDS011;34442;52.362;-1.302;2022-11-21T14:31:48;7.47;;;2.10;;
48651;SDS011;34442;52.362;-1.302;2022-11-21T14:34:27;2.72;;;1.02;;
48651;SDS011;34442;52.362;-1.302;2022-11-21T14:36:54;3.90;;;1.60;;
48651;SDS011;34442;52.362;-1.302;2022-11-21T14:39:24;4.78;;;1.45;;
48651;SDS011;34442;52.362;-1.302;2022-11-21T14:41:53;4.60;;;1.45;;
48651;SDS011;34442;52.362;-1.302;2022-11-21T14:44:21;5.65;;;1.77;;
48651;SDS011;34442;52.362;-1.302;2022-11-21T14:47:00;3.13;;;1.20;;
48651;SDS011;34442;52.362;-1.302;2022-11-21T14:49:51;3.90;;;1.55;;
48651;SDS011;34442;52.362;-1.302;2022-11-21T14:52:30;4.50;;;1.55;;
48651;SDS011;34442;52.362;-1.302;2022-11-21T14:54:58;2.35;;;1.38;;
48651;SDS011;34442;52.362;-1.302;2022-11-21T14:57:35;1.85;;;0.90;;
48651;SDS011;34442;52.362;-1.302;2022-11-21T15:00:05;3.25;;;1.13;;
48651;SDS011;34442;52.362;-1.302;2022-11-21T15:02:31;2.65;;;1.10;;
48651;SDS011;34442;52.362;-1.302;2022-11-21T15:05:02;2.38;;;0.90;;
48651;SDS011;34442;52.362;-1.302;2022-11-21T15:07:38;4.68;;;2.20;;
48651;SDS011;34442;52.362;-1.302;2022-11-21T15:12:44;2.25;;;1.13;;
48651;SDS011;34442;52.362;-1.302;2022-11-21T15:17:56;2.17;;;1.00;;
48651;SDS011;34442;52.362;-1.302;2022-11-21T15:20:23;1.88;;;0.93;;
48651;SDS011;34442;52.362;-1.302;2022-11-21T15:22:52;1.35;;;0.90;;
48651;SDS011;34442;52.362;-1.302;2022-11-21T15:25:21;3.20;;;0.98;;
48651;SDS011;34442;52.362;-1.302;2022-11-21T15:27:51;1.70;;;0.95;;
48651;SDS011;34442;52.362;-1.302;2022-11-21T15:30:30;6.28;;;1.52;;
48651;SDS011;34442;52.362;-1.302;2022-11-21T15:33:01;3.13;;;1.20;;
48651;SDS011;34442;52.362;-1.302;2022-11-21T15:38:18;2.70;;;0.90;;
48651;SDS011;34442;52.362;-1.302;2022-11-21T15:43:38;4.68;;;1.23;;
48651;SDS011;34442;52.362;-1.302;2022-11-21T15:46:13;2.78;;;1.00;;
48651;SDS011;34442;52.362;-1.302;2022-11-21T15:48:46;1.90;;;1.20;;
48651;SDS011;34442;52.362;-1.302;2022-11-21T15:51:17;5.50;;;1.50;;
48651;SDS011;34442;52.362;-1.302;2022-11-21T15:53:44;2.25;;;1.02;;
48651;SDS011;34442;52.362;-1.302;2022-11-21T15:56:11;1.70;;;0.82;;
48651;SDS011;34442;52.362;-1.302;2022-11-21T15:58:38;3.28;;;1.13;;
48651;SDS011;34442;52.362;-1.302;2022-11-21T16:01:03;1.38;;;0.80;;
48651;SDS011;34442;52.362;-1.302;2022-11-21T16:03:28;1.88;;;0.90;;
48651;SDS011;34442;52.362;-1.302;2022-11-21T16:05:54;3.63;;;1.00;;
48651;SDS011;34442;52.362;-1.302;2022-11-21T16:08:19;2.30;;;1.20;;
48651;SDS011;34442;52.362;-1.302;2022-11-21T16:10:45;2.70;;;1.27;;
48651;SDS011;34442;52.362;-1.302;2022-11-21T16:13:10;1.90;;;0.98;;
48651;SDS011;34442;52.362;-1.302;2022-11-21T16:15:36;2.45;;;0.90;;
48651;SDS011;34442;52.362;-1.302;2022-11-21T16:18:01;1.27;;;0.93;;
48651;SDS011;34442;52.362;-1.302;2022-11-21T16:20:27;3.05;;;1.02;;
48651;SDS011;34442;52.362;-1.302;2022-11-21T16:22:52;2.63;;;1.02;;
48651;SDS011;34442;52.362;-1.302;2022-11-21T16:25:21;0.70;;;0.70;;
48651;SDS011;34442;52.362;-1.302;2022-11-21T16:27:46;3.80;;;2.38;;
48651;SDS011;34442;52.362;-1.302;2022-11-21T16:30:12;2.10;;;0.90;;
48651;SDS011;34442;52.362;-1.302;2022-11-21T16:32:38;1.20;;;1.00;;
48651;SDS011;34442;52.362;-1.302;2022-11-21T16:35:04;1.67;;;0.65;;
48651;SDS011;34442;52.362;-1.302;2022-11-21T16:37:30;1.65;;;0.98;;
48651;SDS011;34442;52.362;-1.302;2022-11-21T16:39:56;2.30;;;0.98;;
48651;SDS011;34442;52.362;-1.302;2022-11-21T16:42:21;1.75;;;0.77;;
48651;SDS011;34442;52.362;-1.302;2022-11-21T16:44:46;1.88;;;1.13;;
48651;SDS011;34442;52.362;-1.302;2022-11-21T16:47:12;2.88;;;1.23;;
48651;SDS011;34442;52.362;-1.302;2022-11-21T16:49:38;1.48;;;0.80;;
48651;SDS011;34442;52.362;-1.302;2022-11-21T16:52:07;1.85;;;1.02;;